»·PEaware :: SKY302 KFHR-KORS

SKY302 :: KFHR-KORS

FLIGHT INFORMATION

Flight Status: Arrived
Operator:
Sky High Charters
More flights by this operator :: More flights under this callsign
Pilot: Matt S. (28717)
Aircraft: PIPER PA-28 CHEROKEE ARCHER
(P28A)
More flights by this aircraft type
Origin: KFHR Friday Harbor
United States
Destination: KORS Orcas Island
United States
More flights between these airports :: More routes between these airports
Route: +ORCUS
File this flight plan on PilotEdge
Remarks:
Altitude:
(Current/Filed)
4,000ft
Speed:
(Current/Filed)
110kts
Departed: 21-Nov-20 03:35 PM
Arrived: 21-Nov-20 03:58 PM
Distance/Time
Traveled:
12nm/0:22
Distance/Time
To Go:
Arrived

Flight Plot

Page will automatically refresh every two minutes.

Flight plan parsing failed; only flown route is shown


Map Options




Map Legend


Flown Route
Filed Route
Departure Airport
Arrival Airport
Navaid (VOR, NDB)
Fix

Horizontal Profiles

Position Reports

Time Latitude Longitude Heading Altitude Ground
Speed
21-Nov-20 15:20 48.524645 -123.025862 2 107ft 0kts
21-Nov-20 15:21 48.524645 -123.025862 2 107ft 0kts
21-Nov-20 15:22 48.524645 -123.025862 2 107ft 0kts
21-Nov-20 15:23 48.524649 -123.025862 2 107ft 0kts
21-Nov-20 15:24 48.524651 -123.025862 2 107ft 0kts
21-Nov-20 15:25 48.524655 -123.025862 2 107ft 0kts
21-Nov-20 15:26 48.524658 -123.025861 2 107ft 0kts
21-Nov-20 15:27 48.524662 -123.025861 2 107ft 0kts
21-Nov-20 15:28 48.524221 -123.025208 167 107ft 5kts
21-Nov-20 15:29 48.520602 -123.024895 174 107ft 17kts
21-Nov-20 15:30 48.517996 -123.024688 177 107ft 1kts
21-Nov-20 15:31 48.517981 -123.024688 177 107ft 0kts
21-Nov-20 15:32 48.517420 -123.024599 150 107ft 0kts
21-Nov-20 15:33 48.517655 -123.024048 352 107ft 14kts
21-Nov-20 15:34 48.538635 -123.024250 1 1239ft 79kts
21-Nov-20 15:35 48.536704 -123.037896 144 2330ft 102kts
21-Nov-20 15:36 48.513532 -123.016992 178 3357ft 107kts
21-Nov-20 15:37 48.488877 -123.036393 224 4481ft 102kts
21-Nov-20 15:38 48.464632 -123.065626 209 4754ft 133kts
21-Nov-20 15:39 48.434009 -123.090904 208 4792ft 104kts
21-Nov-20 15:40 48.408107 -123.109223 204 5061ft 108kts
21-Nov-20 15:41 48.380121 -123.128379 204 5098ft 114kts
21-Nov-20 15:42 48.349272 -123.137443 143 5002ft 118kts
21-Nov-20 15:43 48.362120 -123.098779 43 4931ft 118kts
21-Nov-20 15:44 48.385779 -123.065283 43 4881ft 121kts
21-Nov-20 15:45 48.411199 -123.029285 43 4494ft 127kts
21-Nov-20 15:46 48.436814 -122.992924 43 4091ft 123kts
21-Nov-20 15:47 48.461873 -122.957766 41 3688ft 122kts
21-Nov-20 15:48 48.487014 -122.926792 39 3996ft 114kts
21-Nov-20 15:49 48.514829 -122.895766 34 4041ft 129kts
21-Nov-20 15:50 48.545073 -122.869003 6 4008ft 119kts
21-Nov-20 15:51 48.575779 -122.864737 6 3605ft 99kts
21-Nov-20 15:52 48.601869 -122.865853 347 2698ft 92kts
21-Nov-20 15:53 48.626498 -122.879814 337 1934ft 96kts
21-Nov-20 15:54 48.651915 -122.894276 339 1240ft 97kts
21-Nov-20 15:55 48.676549 -122.906659 345 664ft 86kts
21-Nov-20 15:56 48.696812 -122.910879 2 248ft 63kts
21-Nov-20 15:57 48.709723 -122.910139 96 15ft 6kts
21-Nov-20 15:58 48.707091 -122.909986 178 15ft 10kts
21-Nov-20 16:00 48.705270 -122.909662 183 15ft 0kts
21-Nov-20 16:01 48.705270 -122.909662 183 15ft 0kts
21-Nov-20 16:02 48.705270 -122.909662 183 15ft 0kts
21-Nov-20 16:03 48.705270 -122.909662 183 15ft 0kts
21-Nov-20 16:04 48.705270 -122.909662 183 15ft 0kts
21-Nov-20 16:05 48.705270 -122.909662 183 15ft 0kts
21-Nov-20 16:06 48.705270 -122.909662 183 15ft 0kts
21-Nov-20 16:07 48.705270 -122.909662 183 15ft 0kts
21-Nov-20 16:08 48.705270 -122.909662 183 15ft 0kts
21-Nov-20 16:09 48.705270 -122.909662 183 15ft 0kts
21-Nov-20 16:10 48.705270 -122.909662 183 15ft 0kts
21-Nov-20 16:11 48.705270 -122.909662 183 15ft 0kts
21-Nov-20 16:12 48.705270 -122.909662 183 15ft 0kts

Navigation Log

Ident Type
Flight plan parsing failed, navigation log unavailable